Time;durP1;ratioP1;P1;durP2;ratioP2;P2;SDS_P1;SDS_P2;PMS_P1;PMS_P2;Temp;Humidity;BMP_temperature;BMP_pressure;BME280_temperature;BME280_humidity;BME280_pressure;Samples;Min_cycle;Max_cycle;Signal;HPM_P1;HPM_P2
2021/05/04 00:01:05;;;;;;;13.25;7.60;;;10.10;84.20;;;;;;5115900;28;20532;-72
2021/05/04 00:03:31;;;;;;;10.70;9.38;;;10.10;83.90;;;;;;5116004;28;20035;-72
2021/05/04 00:05:57;;;;;;;10.57;8.43;;;10.10;85.20;;;;;;5115386;28;20032;-72
2021/05/04 00:08:23;;;;;;;9.38;7.60;;;10.00;85.00;;;;;;5115819;28;20047;-72
2021/05/04 00:10:48;;;;;;;9.55;7.95;;;10.00;84.90;;;;;;5116357;28;20031;-72
2021/05/04 00:13:14;;;;;;;7.95;6.90;;;10.10;84.20;;;;;;5116209;28;20456;-72
2021/05/04 00:15:40;;;;;;;10.57;7.00;;;10.10;83.20;;;;;;5115569;28;20032;-72
2021/05/04 00:18:05;;;;;;;10.57;7.38;;;10.10;83.10;;;;;;5115715;28;20392;-72
2021/05/04 00:20:31;;;;;;;9.38;6.90;;;10.20;82.70;;;;;;5115394;28;20050;-72
2021/05/04 00:22:57;;;;;;;8.60;6.35;;;10.10;84.80;;;;;;5115864;28;20036;-72
2021/05/04 00:25:22;;;;;;;8.77;6.38;;;10.10;86.20;;;;;;5115290;28;20440;-72
2021/05/04 00:27:48;;;;;;;7.88;5.90;;;10.10;84.90;;;;;;5115184;28;20043;-72
2021/05/04 00:30:14;;;;;;;7.55;6.22;;;10.20;84.30;;;;;;5115383;28;20394;-72
2021/05/04 00:32:40;;;;;;;9.32;6.43;;;10.20;83.80;;;;;;5115536;28;20379;-72
2021/05/04 00:35:06;;;;;;;10.75;6.72;;;10.10;84.70;;;;;;5115402;28;20066;-72
2021/05/04 00:37:32;;;;;;;9.05;6.65;;;10.10;85.60;;;;;;5115029;28;20047;-72
2021/05/04 00:39:57;;;;;;;7.07;5.90;;;10.00;86.00;;;;;;5114424;28;20036;-72
2021/05/04 00:42:25;;;;;;;8.85;6.50;;;10.00;86.80;;;;;;5115713;28;20042;-72
2021/05/04 00:44:51;;;;;;;7.30;6.47;;;10.00;86.80;;;;;;5114602;28;20035;-72
2021/05/04 00:47:17;;;;;;;9.27;6.35;;;9.90;87.70;;;;;;5115057;28;20047;-72
2021/05/04 00:49:42;;;;;;;9.75;6.60;;;9.90;87.90;;;;;;5115174;28;20047;-72
2021/05/04 00:52:08;;;;;;;9.02;6.88;;;9.90;87.40;;;;;;5114430;28;20039;-72
2021/05/04 00:54:34;;;;;;;7.38;5.25;;;9.90;88.00;;;;;;5114638;28;20039;-72
2021/05/04 00:57:00;;;;;;;8.13;5.88;;;9.90;88.00;;;;;;5114817;28;20093;-72
2021/05/04 00:59:30;;;;;;;7.20;5.60;;;9.90;88.10;;;;;;5115245;28;20134;-72
2021/05/04 01:01:56;;;;;;;7.13;5.93;;;9.80;89.50;;;;;;5114851;28;20039;-72
2021/05/04 01:04:23;;;;;;;8.82;6.53;;;9.80;90.40;;;;;;5114672;28;20043;-74
2021/05/04 01:06:49;;;;;;;8.77;6.13;;;9.70;90.00;;;;;;5114947;28;20039;-72
2021/05/04 01:09:16;;;;;;;8.73;6.20;;;9.60;90.20;;;;;;5114315;28;20523;-72
2021/05/04 01:11:43;;;;;;;9.55;5.95;;;9.60;90.90;;;;;;5115102;28;20035;-72
2021/05/04 01:14:09;;;;;;;7.70;6.25;;;9.60;90.30;;;;;;5114388;28;20063;-72
2021/05/04 01:16:35;;;;;;;7.45;6.00;;;9.50;91.10;;;;;;5113959;28;20075;-72
2021/05/04 01:19:00;;;;;;;8.57;6.35;;;9.60;90.80;;;;;;5114759;28;20042;-72
2021/05/04 01:21:26;;;;;;;9.95;6.43;;;9.50;91.00;;;;;;5114414;28;20043;-72
2021/05/04 01:23:52;;;;;;;7.45;6.15;;;9.50;91.00;;;;;;5114250;28;20031;-72
2021/05/04 01:26:17;;;;;;;8.10;5.90;;;9.40;91.50;;;;;;5113871;28;20114;-72
2021/05/04 01:28:43;;;;;;;8.13;6.63;;;9.40;91.60;;;;;;5114351;28;20061;-72
2021/05/04 01:31:09;;;;;;;7.88;6.93;;;9.30;91.80;;;;;;5113960;28;20071;-72
2021/05/04 01:33:34;;;;;;;7.60;6.82;;;9.30;92.10;;;;;;5114398;28;20388;-72
2021/05/04 01:36:03;;;;;;;10.82;7.88;;;9.20;92.60;;;;;;5114271;28;20035;-72
2021/05/04 01:38:29;;;;;;;9.25;7.43;;;9.10;92.90;;;;;;5114577;28;20043;-72
2021/05/04 01:40:55;;;;;;;9.98;7.72;;;9.20;93.30;;;;;;5114693;28;20032;-72
2021/05/04 01:43:20;;;;;;;9.00;8.00;;;9.10;93.40;;;;;;5113927;28;20423;-72
2021/05/04 01:45:46;;;;;;;9.27;8.15;;;9.00;93.60;;;;;;5114165;28;20495;-72
2021/05/04 01:48:11;;;;;;;8.88;7.80;;;9.00;93.60;;;;;;5114288;28;20164;-72
2021/05/04 01:50:38;;;;;;;11.25;8.80;;;9.00;94.30;;;;;;5113847;28;20036;-72
2021/05/04 01:53:03;;;;;;;9.30;8.32;;;8.90;94.30;;;;;;5114469;28;20059;-72
2021/05/04 01:55:29;;;;;;;10.48;8.07;;;8.90;94.40;;;;;;5113535;28;20490;-72
2021/05/04 01:57:54;;;;;;;11.10;8.35;;;8.90;94.30;;;;;;5113652;28;20050;-72
2021/05/04 02:00:20;;;;;;;11.55;9.35;;;8.90;94.60;;;;;;5114210;28;20044;-72
2021/05/04 02:02:46;;;;;;;10.05;8.23;;;8.90;94.90;;;;;;5113775;28;20040;-72
2021/05/04 02:05:13;;;;;;;9.05;8.15;;;8.80;94.60;;;;;;5113371;28;20514;-72
2021/05/04 02:07:39;;;;;;;14.20;9.20;;;8.80;94.80;;;;;;5112215;28;20035;-72
2021/05/04 02:10:06;;;;;;;10.52;8.48;;;8.80;94.90;;;;;;5114359;28;20512;-72
2021/05/04 02:12:32;;;;;;;11.35;7.95;;;8.80;95.00;;;;;;5113686;28;20047;-72
2021/05/04 02:14:57;;;;;;;9.43;7.25;;;8.80;95.40;;;;;;5113451;28;20040;-72
2021/05/04 02:17:23;;;;;;;14.10;8.77;;;8.70;95.00;;;;;;5113423;28;20114;-72
2021/05/04 02:19:49;;;;;;;10.98;9.20;;;8.80;95.10;;;;;;5114031;28;20081;-72
2021/05/04 02:22:15;;;;;;;8.95;7.82;;;8.70;95.00;;;;;;5113850;28;20387;-72
2021/05/04 02:24:41;;;;;;;9.68;7.65;;;8.70;95.10;;;;;;5113283;28;20035;-72
2021/05/04 02:27:07;;;;;;;10.52;7.18;;;8.70;95.00;;;;;;5113624;28;20040;-72
2021/05/04 02:29:33;;;;;;;10.82;7.38;;;8.70;95.00;;;;;;5113744;28;20063;-72
2021/05/04 02:31:59;;;;;;;12.20;8.45;;;8.70;95.30;;;;;;5113601;28;20498;-72
2021/05/04 02:34:24;;;;;;;11.05;8.50;;;8.70;95.40;;;;;;5113752;28;20032;-72
2021/05/04 02:36:50;;;;;;;12.98;8.60;;;8.60;95.70;;;;;;5114046;28;20031;-72
2021/05/04 02:39:16;;;;;;;9.93;7.85;;;8.60;95.80;;;;;;5113353;28;20058;-71
2021/05/04 02:41:42;;;;;;;10.07;7.53;;;8.60;95.70;;;;;;5113466;28;20456;-72
2021/05/04 02:44:07;;;;;;;14.02;7.68;;;8.60;95.60;;;;;;5113322;28;20475;-71
2021/05/04 02:46:34;;;;;;;14.57;7.20;;;8.60;95.60;;;;;;5113078;28;20398;-71
2021/05/04 02:49:00;;;;;;;10.20;7.18;;;8.60;95.70;;;;;;5113321;28;20040;-72
2021/05/04 02:51:26;;;;;;;12.25;6.78;;;8.60;95.80;;;;;;5113145;28;20541;-72
2021/05/04 02:53:52;;;;;;;10.18;6.00;;;8.60;95.80;;;;;;5113958;28;20035;-71
2021/05/04 02:56:19;;;;;;;8.75;5.43;;;8.60;95.60;;;;;;5112844;28;20043;-71
2021/05/04 02:58:44;;;;;;;12.35;5.68;;;8.60;95.40;;;;;;5113482;28;20118;-72
2021/05/04 03:01:10;;;;;;;10.93;5.75;;;8.70;95.50;;;;;;5113729;28;20107;-72
2021/05/04 03:03:36;;;;;;;8.57;6.28;;;8.60;95.70;;;;;;5113673;28;20031;-72
2021/05/04 03:06:03;;;;;;;8.20;5.45;;;8.70;95.40;;;;;;5113069;28;20054;-72
2021/05/04 03:08:30;;;;;;;9.75;6.40;;;8.60;95.60;;;;;;5113482;28;20040;-72
2021/05/04 03:10:56;;;;;;;9.65;6.93;;;8.60;95.80;;;;;;5113449;28;20035;-72
2021/05/04 03:13:29;;;;;;;8.48;5.70;;;8.60;95.90;;;;;;5113360;28;20042;-72
2021/05/04 03:15:55;;;;;;;7.93;5.75;;;8.60;95.70;;;;;;5114471;28;20088;-71
2021/05/04 03:18:22;;;;;;;7.60;4.95;;;8.60;95.60;;;;;;5117213;28;20126;-72
2021/05/04 03:20:52;;;;;;;10.02;5.90;;;8.70;95.50;;;;;;5116583;28;20078;-71
2021/05/04 03:23:19;;;;;;;8.82;5.60;;;8.70;95.30;;;;;;5117066;28;20476;-72
2021/05/04 03:25:46;;;;;;;7.45;5.20;;;8.70;95.50;;;;;;5116578;28;20092;-72
2021/05/04 03:28:14;;;;;;;7.35;5.45;;;8.70;95.40;;;;;;5117180;28;20047;-72
2021/05/04 03:30:39;;;;;;;7.68;4.97;;;8.60;95.80;;;;;;5116560;28;20035;-71
2021/05/04 03:33:06;;;;;;;13.35;6.22;;;8.60;96.00;;;;;;5116467;27;20444;-72
2021/05/04 03:35:32;;;;;;;7.28;5.10;;;8.60;96.20;;;;;;5116532;28;20080;-72
2021/05/04 03:37:58;;;;;;;6.90;5.35;;;8.60;96.10;;;;;;5116411;28;20460;-72
2021/05/04 03:40:24;;;;;;;10.45;5.57;;;8.60;96.30;;;;;;5116638;28;20438;-72
2021/05/04 03:42:50;;;;;;;8.50;5.57;;;8.60;96.20;;;;;;5116662;28;20133;-72
2021/05/04 03:45:16;;;;;;;6.47;5.18;;;8.60;96.30;;;;;;5116092;28;20084;-72
2021/05/04 03:47:44;;;;;;;7.47;5.43;;;8.50;96.30;;;;;;5116091;28;20035;-71
2021/05/04 03:50:15;;;;;;;14.68;5.65;;;8.50;96.20;;;;;;5116124;28;20057;-71
2021/05/04 03:52:42;;;;;;;6.03;5.30;;;8.50;96.30;;;;;;5116254;28;20459;-71
2021/05/04 03:55:09;;;;;;;9.57;5.20;;;8.60;96.40;;;;;;5116122;28;20437;-72
2021/05/04 03:57:34;;;;;;;9.23;5.20;;;8.60;96.40;;;;;;5115987;28;20122;-71
2021/05/04 04:00:00;;;;;;;8.27;5.50;;;8.60;96.60;;;;;;5116643;28;20115;-71
2021/05/04 04:02:26;;;;;;;7.93;5.40;;;8.50;96.80;;;;;;5116482;27;20036;-71
2021/05/04 04:04:52;;;;;;;9.82;6.15;;;8.50;96.90;;;;;;5115642;28;20036;-71
2021/05/04 04:07:18;;;;;;;9.50;5.63;;;8.50;96.90;;;;;;5115793;28;20535;-71
2021/05/04 04:09:44;;;;;;;7.05;5.50;;;8.50;96.90;;;;;;5115701;28;20063;-72
2021/05/04 04:12:09;;;;;;;6.53;5.68;;;8.50;96.90;;;;;;5116356;28;20107;-71
2021/05/04 04:14:35;;;;;;;8.55;5.63;;;8.60;97.10;;;;;;5115954;28;20115;-72
2021/05/04 04:17:01;;;;;;;6.15;4.93;;;8.60;97.00;;;;;;5115836;28;20038;-72
2021/05/04 04:19:26;;;;;;;7.28;5.82;;;8.60;97.00;;;;;;5115598;28;20040;-71
2021/05/04 04:21:52;;;;;;;8.40;5.68;;;8.60;97.10;;;;;;5115470;28;20114;-72
2021/05/04 04:24:18;;;;;;;10.40;5.90;;;8.50;97.20;;;;;;5116104;28;20032;-71
2021/05/04 04:26:44;;;;;;;7.00;5.00;;;8.50;97.00;;;;;;5114711;28;20047;-71
2021/05/04 04:29:10;;;;;;;5.65;4.60;;;8.60;96.90;;;;;;5115118;28;20067;-71
2021/05/04 04:31:36;;;;;;;6.68;5.47;;;8.60;96.80;;;;;;5115187;28;20056;-71
2021/05/04 04:34:03;;;;;;;8.68;5.10;;;8.70;97.10;;;;;;5115757;28;20159;-71
2021/05/04 04:36:28;;;;;;;7.10;5.10;;;8.70;96.80;;;;;;5114885;28;20539;-71
2021/05/04 04:38:54;;;;;;;6.47;5.22;;;8.70;97.00;;;;;;5115079;28;20048;-72
2021/05/04 04:41:20;;;;;;;5.43;4.82;;;8.70;97.10;;;;;;5115551;28;20054;-71
2021/05/04 04:43:46;;;;;;;6.30;4.75;;;8.70;96.80;;;;;;5115601;28;20463;-71
2021/05/04 04:46:12;;;;;;;6.65;4.95;;;8.80;97.30;;;;;;5114806;28;20472;-71
2021/05/04 04:48:37;;;;;;;6.10;5.07;;;8.80;96.80;;;;;;5115096;28;20035;-71
2021/05/04 04:51:03;;;;;;;5.57;4.75;;;8.80;96.90;;;;;;5115406;28;20039;-71
2021/05/04 04:53:29;;;;;;;6.43;5.00;;;8.80;97.00;;;;;;5115167;28;20114;-71
2021/05/04 04:55:54;;;;;;;5.47;4.88;;;8.70;97.10;;;;;;5114593;28;20394;-72
2021/05/04 04:58:21;;;;;;;7.03;4.80;;;8.80;96.90;;;;;;5115265;28;20081;-71
2021/05/04 05:00:46;;;;;;;6.38;4.75;;;8.80;97.00;;;;;;5114909;28;20119;-71
2021/05/04 05:03:13;;;;;;;7.78;5.25;;;8.80;96.90;;;;;;5114644;28;20035;-71
2021/05/04 05:05:39;;;;;;;8.73;5.13;;;8.80;97.00;;;;;;5114742;28;20043;-71
2021/05/04 05:08:05;;;;;;;6.00;4.82;;;8.80;97.10;;;;;;5114552;28;20078;-71
2021/05/04 05:10:31;;;;;;;5.70;5.00;;;8.70;96.90;;;;;;5114577;28;20039;-71
2021/05/04 05:12:58;;;;;;;5.15;4.60;;;8.80;97.00;;;;;;5115213;28;20068;-71
2021/05/04 05:15:24;;;;;;;6.45;4.78;;;8.80;96.80;;;;;;5114594;28;20483;-71
2021/05/04 05:17:49;;;;;;;6.25;4.10;;;8.90;96.70;;;;;;5114376;28;20035;-71
2021/05/04 05:20:16;;;;;;;5.68;5.07;;;8.90;96.60;;;;;;5114640;28;20478;-71
2021/05/04 05:22:45;;;;;;;6.28;5.05;;;8.90;96.60;;;;;;5114766;28;20031;-71
2021/05/04 05:25:12;;;;;;;8.35;4.80;;;8.80;97.00;;;;;;5114316;28;20066;-71
2021/05/04 05:27:38;;;;;;;6.95;4.38;;;8.80;96.70;;;;;;5114279;28;20042;-71
2021/05/04 05:30:08;;;;;;;5.57;4.70;;;8.90;96.60;;;;;;5114284;28;20106;-71
2021/05/04 05:32:34;;;;;;;5.97;4.50;;;8.90;96.70;;;;;;5114277;28;20039;-71
2021/05/04 05:35:00;;;;;;;5.00;4.13;;;9.00;96.80;;;;;;5114113;28;20039;-71
2021/05/04 05:37:27;;;;;;;4.75;4.20;;;9.00;96.50;;;;;;5114373;28;20098;-71
2021/05/04 05:39:53;;;;;;;6.20;4.07;;;9.10;96.20;;;;;;5114365;28;20090;-71
2021/05/04 05:42:19;;;;;;;5.63;4.53;;;9.00;96.70;;;;;;5114520;28;20510;-71
2021/05/04 05:44:44;;;;;;;5.35;4.55;;;9.00;97.20;;;;;;5113901;28;20040;-71
2021/05/04 05:47:10;;;;;;;7.75;4.90;;;8.90;97.30;;;;;;5114250;28;20040;-71
2021/05/04 05:49:37;;;;;;;7.55;5.28;;;8.80;97.50;;;;;;5113911;28;20034;-71
2021/05/04 05:52:03;;;;;;;7.97;4.80;;;8.80;97.70;;;;;;5114421;28;20047;-71
2021/05/04 05:54:30;;;;;;;6.75;4.55;;;8.80;98.00;;;;;;5114128;28;20388;-71
2021/05/04 05:56:57;;;;;;;6.50;4.28;;;8.80;98.00;;;;;;5113875;28;20449;-71
2021/05/04 05:59:23;;;;;;;10.25;4.60;;;8.80;97.90;;;;;;5114242;28;20118;-71
2021/05/04 06:01:49;;;;;;;7.82;4.55;;;8.80;97.90;;;;;;5114151;28;20036;-71
2021/05/04 06:04:15;;;;;;;8.93;5.45;;;8.80;97.90;;;;;;5112631;28;20104;-71
2021/05/04 06:06:41;;;;;;;11.65;5.80;;;8.80;98.00;;;;;;5113530;28;20039;-71
2021/05/04 06:09:08;;;;;;;8.63;5.95;;;8.80;98.00;;;;;;5113692;28;20043;-71
2021/05/04 06:11:33;;;;;;;9.70;5.78;;;8.80;98.10;;;;;;5114269;28;20043;-71
2021/05/04 06:13:59;;;;;;;9.57;5.82;;;8.80;98.20;;;;;;5113758;28;20522;-71
2021/05/04 06:16:25;;;;;;;11.32;6.40;;;8.80;98.30;;;;;;5113341;28;20042;-71
2021/05/04 06:18:51;;;;;;;9.15;5.95;;;8.80;98.20;;;;;;5113854;28;20524;-71
2021/05/04 06:21:17;;;;;;;9.00;5.68;;;8.90;98.10;;;;;;5113821;28;20043;-71
2021/05/04 06:23:42;;;;;;;11.18;6.07;;;8.90;98.20;;;;;;5114134;28;20042;-71
2021/05/04 06:26:08;;;;;;;10.93;6.60;;;9.00;98.20;;;;;;5113429;28;20036;-71
2021/05/04 06:28:35;;;;;;;7.72;5.78;;;9.10;98.50;;;;;;5113882;28;20067;-71
2021/05/04 06:31:02;;;;;;;8.57;5.18;;;9.10;98.00;;;;;;5114029;28;20478;-71
2021/05/04 06:33:30;;;;;;;7.15;5.65;;;9.10;97.80;;;;;;5113797;28;20111;-71
2021/05/04 06:35:55;;;;;;;8.07;5.47;;;9.20;97.70;;;;;;5113478;28;20548;-71
2021/05/04 06:38:22;;;;;;;7.75;5.00;;;9.30;97.70;;;;;;5112853;28;20040;-71
2021/05/04 06:40:50;;;;;;;10.90;6.20;;;9.30;97.80;;;;;;5113468;28;20118;-71
2021/05/04 06:43:16;;;;;;;7.50;4.80;;;9.40;98.00;;;;;;5113327;28;20062;-71
2021/05/04 06:45:42;;;;;;;8.00;4.57;;;9.50;97.50;;;;;;5113370;28;20035;-71
2021/05/04 06:48:08;;;;;;;7.90;4.13;;;9.70;97.30;;;;;;5113210;28;20084;-71
2021/05/04 06:50:34;;;;;;;5.30;3.85;;;9.70;97.00;;;;;;5114744;28;20036;-71
2021/05/04 06:53:00;;;;;;;7.97;4.88;;;9.70;97.20;;;;;;5117864;28;20110;-71
2021/05/04 06:55:26;;;;;;;6.10;3.83;;;9.60;97.50;;;;;;5116946;28;20036;-71
2021/05/04 06:57:52;;;;;;;6.72;4.50;;;9.60;96.90;;;;;;5116965;28;20071;-71
2021/05/04 07:00:20;;;;;;;6.50;3.55;;;9.70;97.20;;;;;;5117649;28;20122;-71
2021/05/04 07:02:45;;;;;;;5.30;3.60;;;9.60;96.80;;;;;;5116996;28;20089;-71
2021/05/04 07:05:11;;;;;;;6.00;3.70;;;9.60;97.40;;;;;;5117149;28;20039;-71
2021/05/04 07:07:37;;;;;;;9.68;4.45;;;9.50;97.40;;;;;;5117256;28;20404;-71
2021/05/04 07:10:04;;;;;;;7.35;4.22;;;9.50;97.40;;;;;;5117040;27;20055;-71
2021/05/04 07:12:30;;;;;;;9.27;4.20;;;9.50;97.20;;;;;;5116857;28;20119;-72
2021/05/04 07:14:55;;;;;;;9.02;4.85;;;9.50;97.30;;;;;;5116715;28;20115;-71
2021/05/04 07:17:22;;;;;;;10.00;5.07;;;9.50;97.60;;;;;;5116580;28;20043;-71
2021/05/04 07:19:48;;;;;;;11.85;4.90;;;9.70;97.70;;;;;;5116923;28;20084;-72
2021/05/04 07:22:13;;;;;;;11.15;4.50;;;9.70;97.50;;;;;;5116583;27;20376;-72
2021/05/04 07:24:39;;;;;;;12.80;5.30;;;9.80;97.40;;;;;;5116443;28;20075;-72
2021/05/04 07:27:09;;;;;;;12.68;5.13;;;9.80;97.20;;;;;;5116402;28;20079;-71
2021/05/04 07:29:37;;;;;;;17.08;5.35;;;9.80;97.40;;;;;;5116410;28;20085;-72
2021/05/04 07:32:04;;;;;;;17.70;5.75;;;9.80;97.10;;;;;;5116810;28;20038;-72
2021/05/04 07:34:30;;;;;;;11.57;5.15;;;9.80;97.10;;;;;;5116197;28;20036;-72
2021/05/04 07:36:56;;;;;;;18.33;5.43;;;9.70;97.40;;;;;;5115228;28;20119;-72
2021/05/04 07:39:21;;;;;;;17.95;6.57;;;9.60;97.60;;;;;;5116641;28;20038;-72
2021/05/04 07:41:47;;;;;;;15.27;5.68;;;9.70;97.80;;;;;;5116504;28;20114;-72
2021/05/04 07:44:13;;;;;;;13.75;5.30;;;9.70;97.70;;;;;;5116534;28;20047;-72
2021/05/04 07:46:38;;;;;;;18.73;4.38;;;9.70;98.00;;;;;;5115944;28;20061;-72
2021/05/04 07:49:07;;;;;;;15.48;4.93;;;9.80;97.80;;;;;;5116082;28;20513;-72
2021/05/04 07:51:33;;;;;;;15.05;4.43;;;10.10;98.40;;;;;;5116053;28;20089;-72
2021/05/04 07:53:58;;;;;;;13.13;3.85;;;10.20;97.70;;;;;;5116056;28;20111;-72
2021/05/04 07:56:24;;;;;;;16.88;4.10;;;10.30;97.00;;;;;;5114525;28;20110;-72
2021/05/04 07:58:50;;;;;;;15.63;3.88;;;10.20;97.20;;;;;;5116339;28;20039;-72
2021/05/04 08:01:16;;;;;;;14.95;3.78;;;10.20;96.80;;;;;;5115723;28;20043;-72
2021/05/04 08:03:41;;;;;;;16.50;4.22;;;10.10;96.70;;;;;;5116498;28;20040;-72
2021/05/04 08:06:07;;;;;;;11.57;3.63;;;10.00;97.10;;;;;;5115481;28;20441;-73
2021/05/04 08:08:33;;;;;;;20.42;4.40;;;10.00;97.00;;;;;;5116004;28;20118;-72
2021/05/04 08:10:59;;;;;;;16.40;4.22;;;9.90;97.50;;;;;;5115014;28;20056;-72
2021/05/04 08:13:25;;;;;;;17.52;4.30;;;10.00;97.10;;;;;;5115866;28;20391;-72
2021/05/04 08:15:52;;;;;;;16.90;4.50;;;10.00;97.30;;;;;;5115518;28;20088;-74
2021/05/04 08:18:18;;;;;;;17.67;4.45;;;10.00;97.70;;;;;;5116257;28;20031;-72
2021/05/04 08:20:48;;;;;;;13.73;4.25;;;10.10;97.60;;;;;;5115858;28;20043;-72
2021/05/04 08:23:16;;;;;;;15.10;4.15;;;10.40;97.00;;;;;;5114225;28;20065;-72
2021/05/04 08:25:41;;;;;;;15.25;3.90;;;10.90;96.40;;;;;;5115529;28;20111;-72
2021/05/04 08:28:07;;;;;;;14.88;3.35;;;11.30;96.10;;;;;;5115807;28;20485;-72
2021/05/04 08:30:33;;;;;;;13.25;3.45;;;11.70;95.20;;;;;;5115860;28;20572;-72
2021/05/04 08:32:59;;;;;;;10.88;3.45;;;12.10;95.80;;;;;;5115319;28;20399;-73
2021/05/04 08:35:26;;;;;;;14.75;3.47;;;12.30;94.00;;;;;;5115326;28;20047;-72
2021/05/04 08:37:53;;;;;;;10.98;3.22;;;12.40;93.10;;;;;;5115264;28;20043;-72
2021/05/04 08:40:19;;;;;;;15.10;4.32;;;12.20;92.10;;;;;;5115412;28;20372;-73
2021/05/04 08:42:45;;;;;;;10.20;2.17;;;11.80;93.30;;;;;;5115229;28;20038;-73
2021/05/04 08:45:13;;;;;;;9.88;2.45;;;11.20;92.70;;;;;;5115154;28;20541;-72
2021/05/04 08:47:39;;;;;;;11.80;2.38;;;11.00;93.50;;;;;;5115699;28;20035;-72
2021/05/04 08:50:06;;;;;;;7.15;2.30;;;11.00;94.30;;;;;;5115061;28;20441;-72
2021/05/04 08:52:31;;;;;;;13.02;3.58;;;10.80;93.90;;;;;;5115114;28;20032;-72
2021/05/04 08:54:58;;;;;;;12.43;2.72;;;10.70;94.60;;;;;;5114889;28;20084;-73
2021/05/04 08:57:23;;;;;;;15.25;3.10;;;10.70;94.80;;;;;;5132479;27;20398;-72
2021/05/04 08:59:52;;;;;;;13.10;3.13;;;10.90;94.90;;;;;;5134836;27;20057;-72
2021/05/04 09:02:22;;;;;;;17.13;4.50;;;11.40;95.10;;;;;;5136522;27;20041;-73
2021/05/04 09:04:54;;;;;;;15.80;3.70;;;11.80;95.70;;;;;;5149789;27;20058;-73
2021/05/04 09:07:31;;;;;;;17.05;3.47;;;12.10;95.50;;;;;;5135241;27;20092;-73
2021/05/04 09:10:11;;;;;;;16.92;4.35;;;11.90;92.90;;;;;;5135442;27;20042;-73
2021/05/04 09:12:44;;;;;;;18.17;3.65;;;11.80;93.40;;;;;;5134986;27;20043;-73
2021/05/04 09:15:58;;;;;;;15.77;3.90;;;11.50;92.70;;;;;;5134833;27;20327;-72
2021/05/04 09:21:09;;;;;;;5.32;1.83;;;10.90;93.60;;;;;;5134921;27;20042;-72
2021/05/04 09:23:42;;;;;;;6.13;1.35;;;10.80;93.20;;;;;;5135032;27;20114;-72
2021/05/04 09:26:20;;;;;;;9.77;2.33;;;10.80;93.00;;;;;;5134417;27;20494;-72
2021/05/04 09:28:51;;;;;;;4.75;1.60;;;10.90;93.40;;;;;;5134936;27;20070;-72
2021/05/04 09:31:28;;;;;;;7.97;2.42;;;11.10;93.40;;;;;;5135333;27;20042;-72
2021/05/04 09:33:55;;;;;;;8.00;3.03;;;11.50;93.70;;;;;;5135111;27;20046;-72
2021/05/04 09:36:50;;;;;;;6.93;2.30;;;11.90;94.20;;;;;;5134379;27;20087;-72
2021/05/04 09:39:28;;;;;;;10.80;2.42;;;12.10;93.30;;;;;;5135485;27;20074;-72
2021/05/04 09:41:59;;;;;;;11.38;2.20;;;12.00;92.60;;;;;;5134600;27;20039;-72
2021/05/04 09:44:47;;;;;;;9.82;2.15;;;11.80;92.70;;;;;;5134312;27;20114;-72
2021/05/04 09:47:24;;;;;;;8.20;2.50;;;11.90;93.10;;;;;;5134692;27;20483;-73
2021/05/04 09:49:51;;;;;;;7.60;2.25;;;11.90;93.50;;;;;;5134582;27;20045;-72
2021/05/04 09:52:21;;;;;;;8.57;2.95;;;11.80;92.70;;;;;;5134918;27;20114;-72
2021/05/04 09:54:47;;;;;;;10.25;2.72;;;11.70;92.70;;;;;;5134091;27;20035;-72
2021/05/04 09:57:35;;;;;;;11.95;2.17;;;11.50;92.90;;;;;;5134394;27;20043;-72
2021/05/04 10:00:04;;;;;;;9.65;1.90;;;11.40;93.10;;;;;;5134453;27;20110;-72
2021/05/04 10:02:30;;;;;;;15.60;2.63;;;11.20;93.30;;;;;;5133804;27;20379;-72
2021/05/04 10:04:56;;;;;;;9.15;2.30;;;11.20;93.10;;;;;;5134634;27;20039;-72
2021/05/04 10:07:22;;;;;;;9.65;2.17;;;11.10;93.40;;;;;;5134167;27;20438;-72
2021/05/04 10:09:49;;;;;;;8.68;2.45;;;11.00;93.40;;;;;;5134541;28;20038;-72
2021/05/04 10:12:16;;;;;;;7.78;2.50;;;11.10;93.20;;;;;;5134804;27;20084;-72
2021/05/04 10:14:44;;;;;;;9.60;2.42;;;11.10;93.50;;;;;;5134072;27;20036;-72
2021/05/04 10:17:10;;;;;;;8.65;2.72;;;11.10;93.90;;;;;;5134135;27;20031;-72
2021/05/04 10:19:39;;;;;;;7.72;2.63;;;11.00;94.20;;;;;;5134191;27;20483;-72
2021/05/04 10:22:05;;;;;;;9.85;2.80;;;11.10;93.80;;;;;;5134614;27;20035;-72
2021/05/04 10:24:34;;;;;;;7.90;2.67;;;11.10;93.50;;;;;;5135081;27;20084;-72
2021/05/04 10:27:03;;;;;;;11.18;2.92;;;11.30;93.30;;;;;;5138365;27;20474;-72
2021/05/04 10:29:29;;;;;;;9.77;2.13;;;11.30;92.80;;;;;;5138765;27;20106;-72
2021/05/04 10:31:57;;;;;;;10.60;2.58;;;11.20;92.40;;;;;;5138459;27;20055;-72
2021/05/04 10:34:31;;;;;;;7.25;2.10;;;11.00;93.30;;;;;;5138421;27;20066;-73
2021/05/04 10:37:03;;;;;;;7.30;1.85;;;10.80;93.90;;;;;;5138269;27;20039;-72
2021/05/04 10:39:47;;;;;;;8.15;2.10;;;10.60;94.90;;;;;;5138231;27;20046;-72
2021/05/04 10:42:16;;;;;;;6.00;1.75;;;10.40;94.60;;;;;;5138540;27;20037;-72
2021/05/04 10:44:55;;;;;;;11.63;1.92;;;10.40;95.30;;;;;;5137674;27;20612;-72
2021/05/04 10:47:41;;;;;;;8.27;2.20;;;10.50;95.30;;;;;;5137828;27;20507;-73
2021/05/04 10:50:22;;;;;;;8.70;2.95;;;10.50;95.50;;;;;;5138523;27;20031;-73
2021/05/04 10:52:48;;;;;;;11.15;2.20;;;10.30;95.90;;;;;;5138571;27;20052;-73
2021/05/04 10:55:18;;;;;;;6.85;1.70;;;10.30;96.10;;;;;;5137489;27;20035;-73
2021/05/04 10:58:02;;;;;;;5.68;0.90;;;10.20;95.30;;;;;;5136602;27;20088;-73
2021/05/04 11:00:54;;;;;;;3.08;0.80;;;10.00;94.90;;;;;;5137795;27;20475;-73
2021/05/04 11:03:35;;;;;;;1.20;0.77;;;9.80;94.50;;;;;;5137949;27;20043;-73
2021/05/04 11:06:33;;;;;;;1.40;0.60;;;9.80;94.90;;;;;;5137314;27;20036;-73
2021/05/04 11:08:59;;;;;;;3.08;0.90;;;9.70;95.30;;;;;;5137411;27;20039;-73
2021/05/04 11:11:37;;;;;;;4.72;1.08;;;9.80;96.20;;;;;;5137496;27;20035;-73
2021/05/04 11:14:23;;;;;;;4.13;1.35;;;9.80;96.10;;;;;;5137553;27;20046;-73
2021/05/04 11:16:53;;;;;;;5.47;1.77;;;10.10;95.90;;;;;;5136905;27;20047;-73
2021/05/04 11:19:31;;;;;;;4.40;1.17;;;10.40;95.30;;;;;;5137471;27;20046;-73
2021/05/04 11:22:00;;;;;;;4.80;1.80;;;10.60;96.40;;;;;;5137259;27;20039;-73
2021/05/04 11:24:35;;;;;;;4.50;1.52;;;10.60;95.80;;;;;;5137220;27;20042;-74
2021/05/04 11:27:04;;;;;;;10.73;2.05;;;10.60;95.10;;;;;;5137466;27;20104;-73
2021/05/04 11:29:30;;;;;;;4.97;1.85;;;10.70;95.60;;;;;;5137320;27;20039;-73
2021/05/04 11:32:11;;;;;;;5.78;1.92;;;10.80;95.40;;;;;;5137205;27;20035;-73
2021/05/04 11:34:50;;;;;;;4.90;1.85;;;10.60;94.50;;;;;;5137010;27;20035;-73
2021/05/04 11:37:22;;;;;;;13.38;2.65;;;10.40;94.30;;;;;;5136689;27;20066;-73
2021/05/04 11:39:51;;;;;;;5.32;2.10;;;10.00;95.60;;;;;;5137004;27;20517;-73
2021/05/04 11:42:18;;;;;;;6.97;1.95;;;9.90;95.80;;;;;;5136906;27;20574;-73
2021/05/04 11:44:44;;;;;;;3.15;1.60;;;9.70;95.00;;;;;;5136592;27;20039;-74
2021/05/04 11:47:26;;;;;;;2.20;1.50;;;9.50;95.40;;;;;;5136597;27;20031;-73
2021/05/04 11:50:06;;;;;;;2.00;1.30;;;9.40;96.20;;;;;;5135836;27;20058;-71
2021/05/04 11:52:33;;;;;;;6.82;2.00;;;9.50;96.50;;;;;;5137049;27;20042;-72
2021/05/04 11:55:08;;;;;;;4.65;2.00;;;9.70;97.60;;;;;;5136921;27;20084;-73
2021/05/04 11:57:34;;;;;;;4.78;2.08;;;9.80;96.40;;;;;;5136748;27;20035;-73
2021/05/04 12:00:00;;;;;;;9.23;3.05;;;9.70;96.40;;;;;;5136558;27;20040;-73
2021/05/04 12:02:31;;;;;;;5.70;2.55;;;9.60;96.20;;;;;;5136772;27;20032;-73
2021/05/04 12:04:57;;;;;;;3.55;2.25;;;9.60;96.60;;;;;;5136512;27;20433;-73
2021/05/04 12:07:43;;;;;;;5.80;2.20;;;9.40;95.70;;;;;;5136263;27;20102;-73
2021/05/04 12:10:14;;;;;;;6.47;1.75;;;9.30;96.40;;;;;;5136430;27;20039;-70
2021/05/04 12:12:45;;;;;;;3.85;1.90;;;9.60;96.60;;;;;;5136283;27;20035;-69
2021/05/04 12:15:13;;;;;;;4.75;2.28;;;9.70;96.40;;;;;;5135944;27;20486;-70
2021/05/04 12:17:40;;;;;;;4.65;1.88;;;9.80;96.00;;;;;;5135854;27;20050;-70
2021/05/04 12:20:16;;;;;;;7.72;2.22;;;9.70;95.10;;;;;;5134479;27;20077;-70
2021/05/04 12:22:43;;;;;;;4.57;2.47;;;9.60;95.10;;;;;;5136235;27;20035;-70
2021/05/04 12:25:10;;;;;;;4.10;1.85;;;9.70;95.10;;;;;;5135817;27;20037;-70
2021/05/04 12:27:36;;;;;;;6.35;2.60;;;9.70;95.30;;;;;;5136049;27;20035;-70
2021/05/04 12:30:03;;;;;;;5.28;2.33;;;9.60;95.40;;;;;;5136080;27;20489;-70
2021/05/04 12:32:28;;;;;;;4.72;2.45;;;9.60;95.50;;;;;;5136592;27;20031;-70
2021/05/04 12:35:30;;;;;;;5.55;2.08;;;9.60;95.80;;;;;;5135311;27;20035;-70
2021/05/04 12:38:22;;;;;;;9.55;3.15;;;9.70;96.20;;;;;;5136084;27;20043;-70
2021/05/04 12:40:57;;;;;;;6.30;3.15;;;9.70;95.20;;;;;;5136387;27;20153;-70
2021/05/04 12:43:27;;;;;;;7.60;3.10;;;9.80;95.30;;;;;;5135080;27;20088;-70
2021/05/04 12:46:31;;;;;;;6.03;3.00;;;9.80;94.80;;;;;;5135544;27;20035;-70
2021/05/04 12:48:57;;;;;;;7.88;3.00;;;9.80;95.00;;;;;;5127238;27;20038;-70
2021/05/04 12:51:31;;;;;;;7.75;2.80;;;9.70;95.50;;;;;;5135484;27;20110;-70
2021/05/04 12:54:08;;;;;;;8.27;2.78;;;9.70;94.70;;;;;;5135686;27;20039;-69
2021/05/04 12:56:34;;;;;;;6.10;2.53;;;9.50;94.60;;;;;;5134920;27;20043;-70
2021/05/04 12:59:08;;;;;;;6.68;2.58;;;9.10;94.50;;;;;;5135611;27;20043;-70